Kailua, HI

2:52 PM HST on October 24, 2014 (GMT -1000)
Kaneohe Bay Dr | Change Station
CLOSE
Current Station
Personal Weather Station
Location: Kaneohe, HI
Elevation: 78 ft
Nearby Weather Stations

Elev 78 ft 21.41 °N, 157.77 °W | Updated 5 seconds ago

Mostly Cloudy
Mostly Cloudy
82.2 °F
Feels Like 88 °F
N
2.9
Wind Variable Wind from North
Gusts 10.0 mph

Today
High -- | Low -- °F
--% Chance of Precip.
Yesterday
High -- | Low -- °F
Precip. -- in
6:30 AM 5:59 PM
New Moon, 1% visible
Pressure 29.98 in
Visibility 10.0 miles
Clouds Mostly Cloudy 2600 ft
Heat Index 88 °F
Dew Point 74 °F
Humidity 76%
Rainfall 0.13 in
Snow Depth Not available.
UV 4 out of 12
Pollen Not available.
PM2.5 Good
Flu Activity Sporadic
METAR PHNG 242357Z 07010KT 10SM BKN026 28/22 A2999 RMK AO2 SLP152 60000 T02830217 10300 20261 58020 $

More Conditions Fewer Conditions

Pressure 29.98 in
Visibility 10.0 miles
Clouds Mostly Cloudy 2600 ft
Heat Index 88 °F
Dew Point 74 °F
Humidity 76%
Rainfall 0.13 in
Snow Depth Not available.
UV 4 out of 12
Pollen Not available.
PM2.5 Good
Flu Activity Sporadic
METAR PHNG 242357Z 07010KT 10SM BKN026 28/22 A2999 RMK AO2 SLP152 60000 T02830217 10300 20261 58020 $

More Conditions Fewer Conditions

10-Day Weather Forecast

Almanac

Astronomy

Oct. 24, 2014 Rise Set
Actual Time 6:30 AM HST 5:59 PM HST
Civil Twilight 6:07 AM HST 6:22 PM HST
Nautical Twilight 5:41 AM HST 6:48 PM HST
Astronomical Twilight 5:15 AM HST 7:14 PM HST
Moon 7:16 AM HST (10/24) 6:54 PM HST (10/24)
Length of Visible Light 12h 14m
Length of Day
11h 29m
Tomorrow will be 1m 8s shorter.
New Moon, 1% of the Moon is Illuminated
Today
New Moon
Oct 30
First Quarter
Nov 6
Full
Nov 14
Last Quarter
Nov 22
New

Today's Extremes

State Highs State Lows

Community

WunderPhotos

Upload Photos

1,764,735 photos uploaded!

WunderBlogs® & News

Nearby

Air Quality

  Air Quality AQ Index Pollutant
Yesterday Good
PM2.5
Current Good
PM2.5
Friday Good
OZONE
Saturday Good
OZONE

Snow Depth

Station Depth Elevation
No new snow has been reported.

Earthquake Activity

City Distance Mag. Time & Date
No recent earthquake activity has been reported nearby.
Minimum magnitude displayed is 2.5.

Coastal Water Temperatures

Place Temperature
No Stations Reporting

Nearby Weather Stations